Terminal Aerodrome Forecast
Issued by NWS Bismarck, ND

Home | Current Version | Previous Version | Graphics & Text | Print | Product List | Glossary Off
Versions: 1 2 3 4 5 6 7 8 9 10 11 12 13 14 15 16 17 18 19 20 21 22 23 24 25 26 27 28 29 30

000
FTUS43 KBIS 281129
TAFISN
TAF
KISN 281129Z 2812/0112 10004KT P6SM OVC025
     FM281700 14008KT P6SM OVC008
     FM282100 15008KT P6SM OVC010
     FM010000 13007KT P6SM VCSH OVC015
     FM010500 09006KT P6SM VCSH OVC010
     FM010800 33008KT P6SM BKN008=

USA.gov is the U.S. government's official web portal to all federal, state and local government web resources and services.